Woodland, Illinois
Current Conditions -  °F | °C
As of 2:55 PM on Tuesday 21 Oct 2014 (Local Time) from KIKK Reporting Station
Overcast Overcast  
Wind Chill: 52°   Ceiling: 3500
Heat Index: 52°   Visibility: 10mi
Dew Point: 44°   Wind: 13mph
Humidity: 74%   Direction: 10°N
Pressure: 30.17"   Gusts: 16mph
Location:  40.71°N, 87.73°W
Report Text: KIKK 211955Z AUTO 01011G14KT 10SM SCT026 OVC035 11/07 A3017 RMK AO2 T01110066
Loading
Personal Weather Stations






























Interactive Weather Map
Tropical Storm Tracking
New forecast layout! Learn more

10-Day Weather Forecast

Advertisements
Track Severe Weather on mobile